Time;durP1;ratioP1;P1;durP2;ratioP2;P2;SDS_P1;SDS_P2;PMS_P1;PMS_P2;Temp;Humidity;BMP_temperature;BMP_pressure;BME280_temperature;BME280_humidity;BME280_pressure;Samples;Min_cycle;Max_cycle;Signal;HPM_P1;HPM_P2
2024/04/17 00:01:58;;;;;;;8.60;2.80;;;;;;;;;;5405850;26;20340;-69
2024/04/17 00:04:23;;;;;;;8.30;3.53;;;;;;;;;;5415543;26;20232;-69
2024/04/17 00:06:48;;;;;;;8.70;3.60;;;;;;;;;;5391020;26;20247;-69
2024/04/17 00:09:13;;;;;;;8.43;3.43;;;;;;;;;;5379341;26;20351;-69
2024/04/17 00:11:38;;;;;;;10.00;3.23;;;;;;;;;;5380881;26;20242;-69
2024/04/17 00:14:04;;;;;;;6.53;3.10;;;;;;;;;;5391579;26;20275;-68
2024/04/17 00:16:29;;;;;;;8.87;3.93;;;;;;;;;;5407043;26;20294;-68
2024/04/17 00:18:54;;;;;;;5.17;3.07;;;;;;;;;;5408664;26;20231;-70
2024/04/17 00:21:19;;;;;;;10.37;3.63;;;;;;;;;;5406792;26;20580;-68
2024/04/17 00:23:45;;;;;;;13.43;3.47;;;;;;;;;;5401779;26;20242;-67
2024/04/17 00:26:10;;;;;;;9.37;3.23;;;;;;;;;;5411639;26;20235;-69
2024/04/17 00:28:35;;;;;;;9.77;2.90;;;;;;;;;;5407915;26;20227;-69
2024/04/17 00:31:00;;;;;;;7.43;3.67;;;;;;;;;;5397296;26;20633;-69
2024/04/17 00:33:26;;;;;;;13.50;3.53;;;;;;;;;;5400010;26;20231;-69
2024/04/17 00:35:51;;;;;;;7.80;2.87;;;;;;;;;;5378799;26;20278;-69
2024/04/17 00:38:16;;;;;;;7.97;3.37;;;;;;;;;;5406927;26;20951;-68
2024/04/17 00:40:41;;;;;;;7.97;3.03;;;;;;;;;;5410192;26;20339;-69
2024/04/17 00:43:07;;;;;;;7.17;3.23;;;;;;;;;;5371486;26;20246;-69
2024/04/17 00:45:43;;;;;;;15.47;4.43;;;;;;;;;;5407063;26;20293;-68
2024/04/17 00:48:10;;;;;;;13.23;3.67;;;;;;;;;;5403922;26;20960;-68
2024/04/17 00:50:36;;;;;;;14.20;3.57;;;;;;;;;;5393456;26;20640;-67
2024/04/17 00:53:02;;;;;;;9.57;3.63;;;;;;;;;;5401310;26;20230;-67
2024/04/17 00:55:27;;;;;;;9.30;3.37;;;;;;;;;;5405913;26;20235;-68
2024/04/17 00:57:53;;;;;;;16.37;4.20;;;;;;;;;;5403820;26;20281;-68
2024/04/17 01:00:18;;;;;;;9.00;3.20;;;;;;;;;;5405432;26;20596;-69
2024/04/17 01:02:44;;;;;;;8.40;3.60;;;;;;;;;;5408017;26;20231;-68
2024/04/17 01:05:09;;;;;;;9.33;3.30;;;;;;;;;;5381490;26;20247;-68
2024/04/17 01:07:34;;;;;;;9.33;3.27;;;;;;;;;;5377923;26;20714;-69
2024/04/17 01:09:59;;;;;;;5.57;2.47;;;;;;;;;;5403021;26;20287;-69
2024/04/17 01:12:25;;;;;;;12.17;2.60;;;;;;;;;;5408691;26;20263;-69
2024/04/17 01:14:50;;;;;;;6.60;1.87;;;;;;;;;;5419873;26;20255;-68
2024/04/17 01:17:15;;;;;;;3.40;1.93;;;;;;;;;;5410400;26;20695;-68
2024/04/17 01:19:40;;;;;;;3.63;1.80;;;;;;;;;;5407364;26;20234;-68
2024/04/17 01:22:06;;;;;;;4.13;1.90;;;;;;;;;;5401093;26;20339;-69
2024/04/17 01:24:31;;;;;;;5.90;1.90;;;;;;;;;;5419221;26;20247;-68
2024/04/17 01:26:56;;;;;;;2.77;1.77;;;;;;;;;;5377905;26;20307;-68
2024/04/17 01:29:21;;;;;;;2.43;1.67;;;;;;;;;;5398262;26;20763;-69
2024/04/17 01:31:46;;;;;;;1.73;1.50;;;;;;;;;;5402523;26;20234;-69
2024/04/17 01:34:12;;;;;;;2.47;1.17;;;;;;;;;;5406239;26;20282;-69
2024/04/17 01:36:37;;;;;;;4.03;1.80;;;;;;;;;;5406624;26;20227;-69
2024/04/17 01:39:02;;;;;;;3.90;2.10;;;;;;;;;;5415014;26;20280;-69
2024/04/17 01:41:28;;;;;;;1.90;0.90;;;;;;;;;;5384727;26;20255;-69
2024/04/17 01:43:53;;;;;;;1.30;1.20;;;;;;;;;;5414347;26;20234;-69
2024/04/17 01:46:18;;;;;;;2.03;0.80;;;;;;;;;;5406202;26;20243;-70
2024/04/17 01:48:43;;;;;;;5.40;1.07;;;;;;;;;;5407704;26;20281;-69
2024/04/17 01:51:08;;;;;;;2.43;1.00;;;;;;;;;;5381948;26;20247;-69
2024/04/17 01:53:34;;;;;;;2.40;1.00;;;;;;;;;;5408917;26;20277;-70
2024/04/17 01:55:59;;;;;;;3.17;1.10;;;;;;;;;;5398703;26;21609;-69
2024/04/17 01:58:25;;;;;;;1.80;1.23;;;;;;;;;;5405307;26;20276;-69
2024/04/17 02:00:50;;;;;;;1.27;1.00;;;;;;;;;;5406244;26;20352;-70
2024/04/17 02:03:15;;;;;;;1.67;1.00;;;;;;;;;;5407225;26;20235;-70
2024/04/17 02:05:40;;;;;;;0.80;0.70;;;;;;;;;;5409141;26;20317;-69
2024/04/17 02:08:06;;;;;;;2.13;1.10;;;;;;;;;;5405812;26;20350;-69
2024/04/17 02:10:31;;;;;;;1.33;0.90;;;;;;;;;;5408405;26;20243;-69
2024/04/17 02:12:56;;;;;;;1.30;0.87;;;;;;;;;;5408621;26;20290;-68
2024/04/17 02:15:21;;;;;;;1.33;1.10;;;;;;;;;;5404311;26;20351;-70
2024/04/17 02:17:46;;;;;;;1.63;1.03;;;;;;;;;;5397672;26;20332;-70
2024/04/17 02:20:12;;;;;;;1.33;1.20;;;;;;;;;;5402993;26;20231;-69
2024/04/17 02:22:37;;;;;;;2.30;1.00;;;;;;;;;;5405605;26;20289;-69
2024/04/17 02:25:03;;;;;;;4.37;2.00;;;;;;;;;;5413688;26;20244;-68
2024/04/17 02:27:28;;;;;;;2.57;1.60;;;;;;;;;;5415140;26;20342;-69
2024/04/17 02:29:53;;;;;;;2.23;1.30;;;;;;;;;;5380805;26;20662;-69
2024/04/17 02:32:19;;;;;;;4.60;1.10;;;;;;;;;;5417575;26;20985;-70
2024/04/17 02:34:44;;;;;;;0.77;0.70;;;;;;;;;;5404699;26;20649;-68
2024/04/17 02:37:09;;;;;;;4.23;1.20;;;;;;;;;;5405117;26;20618;-69
2024/04/17 02:39:35;;;;;;;2.20;1.10;;;;;;;;;;5413322;26;20235;-69
2024/04/17 02:42:00;;;;;;;3.87;1.70;;;;;;;;;;5408524;26;20649;-70
2024/04/17 02:44:25;;;;;;;2.47;1.20;;;;;;;;;;5407621;26;20232;-70
2024/04/17 02:46:50;;;;;;;4.13;1.30;;;;;;;;;;5408611;26;20772;-70
2024/04/17 02:49:15;;;;;;;1.67;1.20;;;;;;;;;;5407441;26;20254;-71
2024/04/17 02:51:41;;;;;;;5.37;1.67;;;;;;;;;;5407611;26;20343;-70
2024/04/17 02:54:06;;;;;;;3.30;1.20;;;;;;;;;;5397908;26;20239;-70
2024/04/17 02:56:31;;;;;;;2.07;1.00;;;;;;;;;;5400896;26;20784;-69
2024/04/17 02:58:56;;;;;;;2.37;1.53;;;;;;;;;;5413079;26;20258;-70
2024/04/17 03:01:21;;;;;;;3.70;1.47;;;;;;;;;;5402940;26;20689;-69
2024/04/17 03:03:47;;;;;;;5.63;1.20;;;;;;;;;;5407239;26;20718;-70
2024/04/17 03:06:12;;;;;;;3.63;1.17;;;;;;;;;;5409000;26;20829;-69
2024/04/17 03:08:37;;;;;;;3.70;1.20;;;;;;;;;;5409287;26;20282;-69
2024/04/17 03:11:03;;;;;;;6.37;1.50;;;;;;;;;;5409128;26;20284;-69
2024/04/17 03:13:29;;;;;;;2.90;0.90;;;;;;;;;;5365817;26;21009;-70
2024/04/17 03:15:54;;;;;;;2.00;0.80;;;;;;;;;;5398939;26;20270;-69
2024/04/17 03:18:20;;;;;;;4.53;2.17;;;;;;;;;;5409545;26;20303;-70
2024/04/17 03:20:45;;;;;;;4.47;1.73;;;;;;;;;;5407246;26;20254;-70
2024/04/17 03:23:11;;;;;;;1.43;0.97;;;;;;;;;;5407418;26;20239;-69
2024/04/17 03:25:36;;;;;;;4.50;1.40;;;;;;;;;;5411095;26;20786;-68
2024/04/17 03:28:01;;;;;;;4.33;1.50;;;;;;;;;;5410417;26;20336;-68
2024/04/17 03:30:26;;;;;;;3.03;1.13;;;;;;;;;;5376683;26;20235;-69
2024/04/17 03:32:51;;;;;;;5.73;1.60;;;;;;;;;;5403868;26;20281;-71
2024/04/17 03:35:18;;;;;;;2.10;1.33;;;;;;;;;;5406513;26;20250;-70
2024/04/17 03:37:43;;;;;;;4.87;1.67;;;;;;;;;;5380537;26;20243;-69
2024/04/17 03:40:08;;;;;;;2.30;1.07;;;;;;;;;;5378410;26;20267;-69
2024/04/17 03:42:34;;;;;;;2.23;0.80;;;;;;;;;;5403939;26;20270;-69
2024/04/17 03:44:59;;;;;;;4.10;1.17;;;;;;;;;;5410060;26;20281;-69
2024/04/17 03:47:24;;;;;;;5.47;1.10;;;;;;;;;;5403540;26;21297;-69
2024/04/17 03:49:49;;;;;;;4.07;1.10;;;;;;;;;;5412637;26;20285;-69
2024/04/17 03:52:15;;;;;;;2.43;1.60;;;;;;;;;;5376750;26;21035;-69
2024/04/17 03:54:40;;;;;;;3.17;1.80;;;;;;;;;;5408888;26;20227;-68
2024/04/17 03:57:05;;;;;;;3.67;1.80;;;;;;;;;;5411012;26;20285;-69
2024/04/17 03:59:30;;;;;;;3.23;1.27;;;;;;;;;;5412351;26;20273;-69
2024/04/17 04:01:55;;;;;;;4.57;1.40;;;;;;;;;;5373893;26;20239;-69
2024/04/17 04:04:21;;;;;;;6.57;1.87;;;;;;;;;;5385525;26;20635;-69
2024/04/17 04:06:46;;;;;;;2.90;1.80;;;;;;;;;;5413258;26;20811;-70
2024/04/17 04:09:11;;;;;;;4.50;2.13;;;;;;;;;;5412823;26;20692;-69
2024/04/17 04:11:37;;;;;;;4.10;1.73;;;;;;;;;;5409616;26;20239;-70
2024/04/17 04:14:04;;;;;;;5.67;1.60;;;;;;;;;;5377630;26;20636;-70
2024/04/17 04:16:30;;;;;;;3.43;1.47;;;;;;;;;;5407364;26;20238;-70
2024/04/17 04:18:55;;;;;;;3.87;1.50;;;;;;;;;;5392301;26;20273;-69
2024/04/17 04:21:20;;;;;;;5.97;1.80;;;;;;;;;;5398560;26;20281;-69
2024/04/17 04:23:49;;;;;;;3.33;1.60;;;;;;;;;;5392046;26;20282;-69
2024/04/17 04:26:14;;;;;;;8.03;2.07;;;;;;;;;;5397722;26;20293;-69
2024/04/17 04:28:40;;;;;;;4.70;1.80;;;;;;;;;;5404159;26;20295;-69
2024/04/17 04:31:06;;;;;;;8.07;3.03;;;;;;;;;;5395996;26;20239;-69
2024/04/17 04:33:31;;;;;;;5.17;2.20;;;;;;;;;;5394374;26;20619;-69
2024/04/17 04:35:56;;;;;;;6.27;1.97;;;;;;;;;;5401835;26;20230;-69
2024/04/17 04:38:21;;;;;;;4.33;2.33;;;;;;;;;;5407593;26;20247;-70
2024/04/17 04:40:46;;;;;;;4.20;2.23;;;;;;;;;;5424994;26;20235;-69
2024/04/17 04:43:12;;;;;;;6.67;2.53;;;;;;;;;;5405764;26;20234;-69
2024/04/17 04:45:37;;;;;;;6.27;2.37;;;;;;;;;;5409071;26;20339;-69
2024/04/17 04:48:02;;;;;;;4.07;1.90;;;;;;;;;;5380962;26;20246;-69
2024/04/17 04:50:27;;;;;;;4.50;2.23;;;;;;;;;;5395443;26;21072;-69
2024/04/17 04:52:52;;;;;;;8.47;2.27;;;;;;;;;;5410382;26;20234;-69
2024/04/17 04:55:18;;;;;;;6.10;2.20;;;;;;;;;;5393597;26;20268;-69
2024/04/17 04:57:45;;;;;;;8.47;1.60;;;;;;;;;;5401110;26;20902;-70
2024/04/17 05:00:10;;;;;;;4.60;1.90;;;;;;;;;;5410500;26;20331;-69
2024/04/17 05:02:35;;;;;;;4.60;1.93;;;;;;;;;;5406920;26;20306;-69
2024/04/17 05:05:01;;;;;;;4.83;2.17;;;;;;;;;;5413824;26;20230;-70
2024/04/17 05:07:26;;;;;;;4.43;2.00;;;;;;;;;;5396181;26;20877;-69
2024/04/17 05:09:51;;;;;;;10.43;1.93;;;;;;;;;;5401828;26;20231;-68
2024/04/17 05:12:17;;;;;;;5.27;2.17;;;;;;;;;;5374022;26;20337;-69
2024/04/17 05:14:42;;;;;;;4.23;2.20;;;;;;;;;;5406931;26;20487;-68
2024/04/17 05:17:07;;;;;;;8.47;2.20;;;;;;;;;;5404733;26;20709;-69
2024/04/17 05:19:32;;;;;;;6.20;2.23;;;;;;;;;;5400157;26;20235;-69
2024/04/17 05:21:57;;;;;;;11.43;2.03;;;;;;;;;;5370910;26;20333;-69
2024/04/17 05:24:23;;;;;;;6.97;2.50;;;;;;;;;;5368553;26;20246;-69
2024/04/17 05:26:48;;;;;;;4.60;1.50;;;;;;;;;;5405468;26;20246;-70
2024/04/17 05:29:13;;;;;;;4.63;1.80;;;;;;;;;;5404435;26;21123;-69
2024/04/17 05:31:38;;;;;;;4.30;1.60;;;;;;;;;;5403126;26;20733;-69
2024/04/17 05:34:03;;;;;;;6.27;1.57;;;;;;;;;;5399250;26;20281;-68
2024/04/17 05:36:29;;;;;;;3.60;2.13;;;;;;;;;;5368459;26;20265;-68
2024/04/17 05:38:54;;;;;;;9.40;2.03;;;;;;;;;;5402131;26;20659;-69
2024/04/17 05:41:19;;;;;;;7.87;2.50;;;;;;;;;;5402209;26;20373;-68
2024/04/17 05:43:44;;;;;;;3.97;1.83;;;;;;;;;;5402563;26;20230;-69
2024/04/17 05:46:09;;;;;;;5.50;1.83;;;;;;;;;;5402254;26;20232;-69
2024/04/17 05:48:34;;;;;;;5.63;2.90;;;;;;;;;;5380544;26;20960;-68
2024/04/17 05:51:00;;;;;;;8.77;3.13;;;;;;;;;;5379954;26;20742;-67
2024/04/17 05:53:26;;;;;;;10.57;3.37;;;;;;;;;;5367971;26;20234;-68
2024/04/17 05:55:51;;;;;;;3.33;2.57;;;;;;;;;;5400248;26;20788;-67
2024/04/17 05:58:16;;;;;;;7.63;2.10;;;;;;;;;;5402621;26;20230;-67
2024/04/17 06:00:42;;;;;;;5.97;2.93;;;;;;;;;;5368391;26;20254;-68
2024/04/17 06:03:07;;;;;;;7.67;2.13;;;;;;;;;;5368149;26;20278;-67
2024/04/17 06:05:32;;;;;;;7.07;2.20;;;;;;;;;;5402307;26;20563;-68
2024/04/17 06:07:57;;;;;;;8.83;2.33;;;;;;;;;;5404274;26;20336;-68
2024/04/17 06:10:22;;;;;;;3.83;2.40;;;;;;;;;;5364910;26;20362;-68
2024/04/17 06:12:48;;;;;;;9.33;2.23;;;;;;;;;;5368762;26;20235;-68
2024/04/17 06:15:13;;;;;;;5.20;2.57;;;;;;;;;;5402421;26;20293;-68
2024/04/17 06:17:38;;;;;;;8.87;2.63;;;;;;;;;;5400469;26;20264;-67
2024/04/17 06:20:04;;;;;;;5.60;2.67;;;;;;;;;;5370684;26;20698;-67
2024/04/17 06:22:29;;;;;;;9.33;2.13;;;;;;;;;;5403001;26;21866;-68
2024/04/17 06:24:54;;;;;;;12.90;2.13;;;;;;;;;;5403251;26;20281;-70
2024/04/17 06:27:19;;;;;;;9.03;2.20;;;;;;;;;;5370832;26;20282;-67
2024/04/17 06:29:45;;;;;;;8.23;1.93;;;;;;;;;;5398940;26;20267;-68
2024/04/17 06:32:10;;;;;;;8.27;1.90;;;;;;;;;;5401469;26;20231;-68
2024/04/17 06:34:36;;;;;;;7.20;2.27;;;;;;;;;;5402103;26;20312;-68
2024/04/17 06:37:01;;;;;;;6.87;2.03;;;;;;;;;;5397962;26;20247;-70
2024/04/17 06:39:26;;;;;;;10.10;2.07;;;;;;;;;;5397365;26;20618;-67
2024/04/17 06:41:51;;;;;;;7.87;2.23;;;;;;;;;;5403659;26;20839;-68
2024/04/17 06:44:16;;;;;;;4.37;1.60;;;;;;;;;;5401885;26;20302;-67
2024/04/17 06:46:42;;;;;;;13.47;1.80;;;;;;;;;;5402307;26;21269;-66
2024/04/17 06:49:08;;;;;;;4.97;1.40;;;;;;;;;;5401805;26;20238;-68
2024/04/17 06:51:34;;;;;;;6.17;1.63;;;;;;;;;;5399662;26;20280;-68
2024/04/17 06:53:59;;;;;;;7.00;1.50;;;;;;;;;;5402186;26;20243;-69
2024/04/17 06:56:26;;;;;;;5.37;1.10;;;;;;;;;;5370999;26;20749;-69
2024/04/17 06:58:51;;;;;;;7.30;2.27;;;;;;;;;;5406835;26;20243;-69
2024/04/17 07:01:16;;;;;;;4.70;1.10;;;;;;;;;;5400960;26;20285;-70
2024/04/17 07:03:41;;;;;;;4.47;1.37;;;;;;;;;;5391290;26;20239;-69
2024/04/17 07:06:07;;;;;;;2.57;0.90;;;;;;;;;;5400292;26;20239;-70
2024/04/17 07:08:32;;;;;;;3.57;1.13;;;;;;;;;;5406609;26;20779;-69
2024/04/17 07:10:57;;;;;;;4.80;0.97;;;;;;;;;;5397428;26;20300;-69
2024/04/17 07:13:22;;;;;;;2.40;1.20;;;;;;;;;;5402313;26;20821;-69
2024/04/17 07:15:47;;;;;;;2.83;0.93;;;;;;;;;;5399456;26;20282;-70
2024/04/17 07:18:13;;;;;;;2.40;0.60;;;;;;;;;;5382821;26;20285;-69
2024/04/17 07:20:38;;;;;;;5.33;1.00;;;;;;;;;;5350821;26;20726;-69
2024/04/17 07:23:03;;;;;;;4.80;0.93;;;;;;;;;;5390062;26;20297;-68
2024/04/17 07:25:28;;;;;;;4.13;1.10;;;;;;;;;;5389646;26;20274;-67
2024/04/17 07:27:54;;;;;;;2.40;0.95;;;;;;;;;;5386045;26;20232;-69
2024/04/17 07:30:19;;;;;;;3.67;0.73;;;;;;;;;;5382473;26;20238;-67
2024/04/17 07:32:44;;;;;;;5.65;0.80;;;;;;;;;;5386501;26;21586;-67
2024/04/17 07:35:10;;;;;;;4.15;0.98;;;;;;;;;;5386914;26;20364;-68
2024/04/17 07:37:35;;;;;;;1.70;0.60;;;;;;;;;;5383967;26;20285;-67
2024/04/17 07:40:00;;;;;;;5.88;1.02;;;;;;;;;;5385112;26;20238;-68
2024/04/17 07:42:25;;;;;;;3.65;1.00;;;;;;;;;;5386294;26;20234;-68
2024/04/17 07:44:51;;;;;;;6.75;1.48;;;;;;;;;;5351629;26;20532;-68
2024/04/17 07:47:16;;;;;;;5.70;1.00;;;;;;;;;;5355540;26;20250;-68
2024/04/17 07:49:41;;;;;;;2.10;0.63;;;;;;;;;;5359552;26;20273;-69
2024/04/17 07:52:06;;;;;;;7.90;2.10;;;;;;;;;;5383185;26;22627;-68
2024/04/17 07:54:31;;;;;;;3.03;0.80;;;;;;;;;;5383900;26;20287;-68
2024/04/17 07:56:57;;;;;;;1.20;0.90;;;;;;;;;;5382850;26;20556;-68
2024/04/17 07:59:23;;;;;;;1.67;0.80;;;;;;;;;;5384698;26;20235;-69
2024/04/17 08:01:48;;;;;;;1.53;1.00;;;;;;;;;;5382482;26;20784;-67
2024/04/17 08:04:13;;;;;;;2.23;0.90;;;;;;;;;;5386600;26;20285;-66
2024/04/17 08:06:38;;;;;;;3.80;0.87;;;;;;;;;;5389282;26;20703;-67
2024/04/17 08:09:03;;;;;;;1.30;0.90;;;;;;;;;;5385189;26;20246;-69
2024/04/17 08:11:35;;;;;;;3.37;0.80;;;;;;;;;;5381987;26;20285;-67
2024/04/17 08:14:00;;;;;;;0.50;0.40;;;;;;;;;;5383676;26;20271;-68
2024/04/17 08:16:25;;;;;;;2.50;0.63;;;;;;;;;;5386068;26;20231;-67
2024/04/17 08:18:50;;;;;;;2.60;0.60;;;;;;;;;;5351752;26;20301;-67
2024/04/17 08:21:16;;;;;;;3.30;0.77;;;;;;;;;;5385286;26;20329;-67
2024/04/17 08:23:41;;;;;;;2.53;0.70;;;;;;;;;;5391184;26;20285;-67
2024/04/17 08:26:06;;;;;;;3.90;0.87;;;;;;;;;;5383277;26;20620;-67
2024/04/17 08:28:31;;;;;;;1.20;0.37;;;;;;;;;;5383984;26;20238;-68
2024/04/17 08:30:56;;;;;;;5.37;0.80;;;;;;;;;;5353615;26;20587;-67
2024/04/17 08:33:22;;;;;;;3.73;0.80;;;;;;;;;;5386248;26;20234;-66
2024/04/17 08:35:47;;;;;;;1.37;0.50;;;;;;;;;;5383667;26;20335;-67
2024/04/17 08:38:12;;;;;;;1.27;0.93;;;;;;;;;;5382949;26;20243;-68
2024/04/17 08:40:37;;;;;;;3.38;0.50;;;;;;;;;;5385631;26;20239;-68
2024/04/17 08:43:06;;;;;;;1.30;0.47;;;;;;;;;;5383503;26;20294;-69
2024/04/17 08:45:32;;;;;;;1.92;0.73;;;;;;;;;;5383311;26;20286;-68
2024/04/17 08:47:59;;;;;;;1.20;0.77;;;;;;;;;;5384811;26;20243;-67
2024/04/17 08:50:29;;;;;;;2.42;0.50;;;;;;;;;;5382297;26;20239;-69
2024/04/17 08:52:55;;;;;;;4.22;0.50;;;;;;;;;;5380447;26;20758;-68
2024/04/17 08:55:21;;;;;;;1.45;0.40;;;;;;;;;;5385290;26;20790;-67
2024/04/17 08:57:46;;;;;;;0.30;0.30;;;;;;;;;;5382922;26;20250;-68
2024/04/17 09:00:11;;;;;;;2.50;0.50;;;;;;;;;;5381549;26;20750;-68
2024/04/17 09:02:38;;;;;;;1.27;0.50;;;;;;;;;;5378235;26;23121;-69
2024/04/17 09:05:04;;;;;;;3.17;0.77;;;;;;;;;;5382184;26;22705;-69
2024/04/17 09:07:29;;;;;;;1.63;0.60;;;;;;;;;;5379145;26;20238;-68
2024/04/17 09:09:54;;;;;;;1.50;0.40;;;;;;;;;;5355611;26;20649;-69
2024/04/17 09:12:20;;;;;;;1.50;0.50;;;;;;;;;;5375982;26;20243;-69
2024/04/17 09:14:46;;;;;;;1.23;0.52;;;;;;;;;;5393353;26;20411;-68
2024/04/17 09:17:11;;;;;;;3.38;0.60;;;;;;;;;;5391365;26;20235;-67
2024/04/17 09:19:36;;;;;;;3.35;0.55;;;;;;;;;;5386525;26;20702;-67
2024/04/17 09:22:01;;;;;;;2.50;0.30;;;;;;;;;;5438279;20;20253;-69
2024/04/17 09:24:27;;;;;;;0.60;0.52;;;;;;;;;;5431745;26;20237;-69
2024/04/17 09:26:52;;;;;;;0.85;0.38;;;;;;;;;;5429561;26;20242;-69
2024/04/17 09:29:17;;;;;;;1.30;0.75;;;;;;;;;;5423724;26;20238;-70
2024/04/17 09:31:46;;;;;;;1.05;0.50;;;;;;;;;;5422344;26;20756;-72
2024/04/17 09:34:18;;;;;;;0.93;0.60;;;;;;;;;;5419509;26;20227;-69
2024/04/17 09:36:44;;;;;;;0.90;0.40;;;;;;;;;;5423312;26;20293;-69
2024/04/17 09:39:10;;;;;;;1.83;0.55;;;;;;;;;;5422883;26;20238;-72
2024/04/17 09:41:39;;;;;;;1.13;0.47;;;;;;;;;;5423398;26;20294;-70
2024/04/17 09:44:07;;;;;;;2.63;0.65;;;;;;;;;;5423822;26;20323;-69
2024/04/17 09:46:32;;;;;;;0.88;0.40;;;;;;;;;;5426700;26;20295;-70
2024/04/17 09:48:58;;;;;;;0.82;0.52;;;;;;;;;;5426159;26;20358;-69
2024/04/17 09:51:25;;;;;;;1.02;0.38;;;;;;;;;;5425231;26;20318;-70
2024/04/17 09:53:57;;;;;;;0.60;0.50;;;;;;;;;;5422362;26;20225;-68
2024/04/17 09:56:23;;;;;;;1.35;0.60;;;;;;;;;;5424813;26;20237;-69
2024/04/17 09:58:48;;;;;;;2.97;0.80;;;;;;;;;;5416460;26;20230;-68
2024/04/17 10:01:14;;;;;;;2.00;0.47;;;;;;;;;;5418712;26;20274;-70
2024/04/17 10:03:41;;;;;;;1.73;0.80;;;;;;;;;;5421400;26;20288;-69
2024/04/17 10:06:08;;;;;;;1.15;0.68;;;;;;;;;;5419179;26;20239;-67
2024/04/17 10:08:34;;;;;;;1.88;0.70;;;;;;;;;;5419876;26;20230;-69
2024/04/17 10:11:01;;;;;;;1.50;0.50;;;;;;;;;;5420205;26;20249;-69
2024/04/17 10:13:26;;;;;;;1.67;0.82;;;;;;;;;;5422614;26;20238;-69
2024/04/17 10:15:51;;;;;;;1.25;0.50;;;;;;;;;;5422216;26;20243;-69
2024/04/17 10:18:17;;;;;;;1.75;0.30;;;;;;;;;;5425469;26;20294;-69
2024/04/17 10:20:42;;;;;;;1.98;0.47;;;;;;;;;;5420858;26;20250;-70
2024/04/17 10:23:08;;;;;;;0.98;0.57;;;;;;;;;;5426598;26;20752;-69
2024/04/17 10:25:33;;;;;;;0.73;0.60;;;;;;;;;;5420803;26;20242;-70
2024/04/17 10:28:22;;;;;;;0.88;0.68;;;;;;;;;;5421092;26;20225;-68
2024/04/17 10:30:48;;;;;;;1.15;0.60;;;;;;;;;;5411135;26;20249;-69
2024/04/17 10:33:26;;;;;;;0.80;0.40;;;;;;;;;;5422309;26;20824;-69
2024/04/17 10:35:51;;;;;;;1.13;0.65;;;;;;;;;;5420784;26;20241;-68
2024/04/17 10:38:17;;;;;;;2.00;0.87;;;;;;;;;;5419459;26;20265;-68
2024/04/17 10:40:42;;;;;;;0.60;0.60;;;;;;;;;;5428993;26;20237;-68
2024/04/17 10:43:07;;;;;;;0.63;0.60;;;;;;;;;;5428052;26;20245;-69
2024/04/17 10:45:33;;;;;;;2.47;0.40;;;;;;;;;;5418591;26;20866;-69
2024/04/17 10:47:59;;;;;;;1.10;0.40;;;;;;;;;;5423664;26;20276;-69
2024/04/17 10:50:25;;;;;;;0.53;0.53;;;;;;;;;;5416608;26;22621;-68
2024/04/17 10:52:52;;;;;;;0.50;0.40;;;;;;;;;;5419897;26;20773;-69
2024/04/17 10:55:17;;;;;;;0.60;0.60;;;;;;;;;;5417873;26;20233;-68
2024/04/17 10:57:42;;;;;;;0.67;0.60;;;;;;;;;;5415874;26;20233;-68
2024/04/17 11:00:09;;;;;;;0.80;0.60;;;;;;;;;;5419645;26;20721;-70
2024/04/17 11:02:34;;;;;;;0.60;0.60;;;;;;;;;;5416948;26;20296;-70
2024/04/17 11:05:00;;;;;;;0.93;0.70;;;;;;;;;;5419170;26;21333;-69
2024/04/17 11:07:25;;;;;;;1.23;1.07;;;;;;;;;;5423446;26;20672;-70
2024/04/17 11:09:51;;;;;;;1.07;0.70;;;;;;;;;;5420265;26;20229;-69
2024/04/17 11:12:17;;;;;;;1.23;0.70;;;;;;;;;;5429312;26;20247;-69
2024/04/17 11:14:43;;;;;;;1.13;0.80;;;;;;;;;;5420940;26;20351;-69
2024/04/17 11:17:08;;;;;;;2.87;0.77;;;;;;;;;;5422317;26;20233;-68
2024/04/17 11:19:34;;;;;;;0.40;0.40;;;;;;;;;;5417652;26;20744;-70
2024/04/17 11:22:05;;;;;;;1.33;0.70;;;;;;;;;;5417288;26;20265;-69
2024/04/17 11:24:32;;;;;;;2.27;0.70;;;;;;;;;;5425023;26;20231;-69
2024/04/17 11:26:57;;;;;;;1.30;0.73;;;;;;;;;;5423014;26;20299;-70
2024/04/17 11:29:22;;;;;;;0.60;0.60;;;;;;;;;;5420631;26;20288;-69
2024/04/17 11:31:48;;;;;;;0.90;0.50;;;;;;;;;;5420289;26;20752;-70
2024/04/17 11:34:20;;;;;;;0.97;0.60;;;;;;;;;;5418411;26;20616;-69
2024/04/17 11:36:48;;;;;;;1.97;0.70;;;;;;;;;;5420417;26;20242;-71
2024/04/17 11:39:15;;;;;;;1.90;0.63;;;;;;;;;;5420615;26;20245;-70
2024/04/17 11:41:40;;;;;;;1.20;0.60;;;;;;;;;;5420245;26;20278;-70
2024/04/17 11:44:06;;;;;;;1.00;0.90;;;;;;;;;;5422072;26;20342;-70
2024/04/17 11:46:31;;;;;;;1.03;0.80;;;;;;;;;;5422325;26;20238;-70
2024/04/17 11:48:56;;;;;;;4.20;1.30;;;;;;;;;;5420678;26;20398;-70
2024/04/17 11:51:21;;;;;;;2.83;0.93;;;;;;;;;;5421302;26;20237;-70
2024/04/17 11:53:47;;;;;;;0.95;0.80;;;;;;;;;;5421072;26;20293;-70
2024/04/17 11:56:12;;;;;;;3.03;1.00;;;;;;;;;;5422380;26;20265;-70
2024/04/17 11:58:38;;;;;;;2.03;0.80;;;;;;;;;;5421698;26;20234;-69
2024/04/17 12:01:03;;;;;;;1.03;0.70;;;;;;;;;;5420707;26;21231;-71
2024/04/17 12:03:31;;;;;;;0.90;0.50;;;;;;;;;;5419400;26;20241;-70
2024/04/17 12:05:56;;;;;;;1.37;0.60;;;;;;;;;;5424321;26;20233;-70
2024/04/17 12:08:21;;;;;;;2.60;0.70;;;;;;;;;;5419242;26;20287;-71
2024/04/17 12:10:47;;;;;;;0.57;0.53;;;;;;;;;;5421226;26;20280;-67
2024/04/17 12:13:13;;;;;;;1.90;0.53;;;;;;;;;;5418460;26;20231;-67
2024/04/17 12:15:38;;;;;;;0.57;0.50;;;;;;;;;;5391840;26;20865;-69
2024/04/17 12:18:03;;;;;;;0.50;0.50;;;;;;;;;;5419699;26;20230;-69
2024/04/17 12:20:28;;;;;;;0.40;0.40;;;;;;;;;;5424642;26;20359;-70
2024/04/17 12:22:55;;;;;;;1.33;0.60;;;;;;;;;;5425505;26;20237;-70
2024/04/17 12:28:04;;;;;;;0.80;0.60;;;;;;;;;;5417655;26;20345;-70
2024/04/17 12:30:29;;;;;;;0.95;0.60;;;;;;;;;;5419104;26;20857;-70
2024/04/17 12:32:54;;;;;;;0.43;0.43;;;;;;;;;;5421278;26;20238;-70
2024/04/17 12:35:19;;;;;;;0.73;0.50;;;;;;;;;;5417268;26;20373;-70
2024/04/17 12:37:45;;;;;;;1.98;0.85;;;;;;;;;;5419763;26;20241;-70
2024/04/17 12:40:10;;;;;;;0.40;0.40;;;;;;;;;;5418318;26;20238;-69
2024/04/17 12:42:35;;;;;;;1.05;0.63;;;;;;;;;;5417061;26;20244;-70
2024/04/17 12:45:00;;;;;;;1.23;0.70;;;;;;;;;;5417639;26;20283;-70
2024/04/17 12:47:26;;;;;;;1.05;0.50;;;;;;;;;;5422436;26;20260;-69
2024/04/17 12:49:51;;;;;;;0.50;0.50;;;;;;;;;;5424244;26;20237;-70
2024/04/17 12:52:16;;;;;;;4.03;0.68;;;;;;;;;;5420259;26;20246;-70
2024/04/17 12:54:41;;;;;;;1.05;0.20;;;;;;;;;;5423673;26;20237;-70
2024/04/17 12:57:07;;;;;;;0.90;0.60;;;;;;;;;;5422321;26;20592;-70
2024/04/17 12:59:33;;;;;;;1.60;0.52;;;;;;;;;;5425981;26;20240;-70
2024/04/17 13:01:58;;;;;;;0.95;0.52;;;;;;;;;;5432665;26;21131;-70
2024/04/17 13:04:23;;;;;;;1.10;0.50;;;;;;;;;;5427084;26;20234;-71
2024/04/17 13:06:50;;;;;;;0.70;0.60;;;;;;;;;;5427844;26;20242;-68
2024/04/17 13:09:15;;;;;;;0.50;0.50;;;;;;;;;;5428884;26;20241;-70
2024/04/17 13:11:40;;;;;;;0.52;0.40;;;;;;;;;;5425490;26;20285;-70
2024/04/17 13:14:06;;;;;;;0.52;0.50;;;;;;;;;;5423251;26;20313;-69
2024/04/17 13:16:31;;;;;;;0.40;0.40;;;;;;;;;;5426413;26;20242;-69
2024/04/17 13:18:56;;;;;;;1.30;0.50;;;;;;;;;;5424060;26;20367;-69
2024/04/17 13:21:21;;;;;;;2.40;0.90;;;;;;;;;;5421584;26;20238;-68
2024/04/17 13:23:47;;;;;;;2.47;0.80;;;;;;;;;;5431809;26;20245;-69
2024/04/17 13:26:12;;;;;;;0.95;0.95;;;;;;;;;;5420684;26;20281;-69
2024/04/17 13:28:37;;;;;;;2.17;1.13;;;;;;;;;;5423556;26;20815;-70
2024/04/17 13:31:05;;;;;;;2.28;0.63;;;;;;;;;;5423203;26;20273;-70
2024/04/17 13:33:30;;;;;;;2.30;0.70;;;;;;;;;;5449424;26;20253;-70
2024/04/17 13:35:56;;;;;;;2.22;0.77;;;;;;;;;;5423470;26;20842;-70
2024/04/17 13:38:22;;;;;;;4.13;0.80;;;;;;;;;;5418127;26;20631;-69
2024/04/17 13:41:07;;;;;;;2.20;0.73;;;;;;;;;;5422973;26;20238;-68
2024/04/17 13:43:33;;;;;;;1.40;1.08;;;;;;;;;;5421846;26;20275;-69
2024/04/17 13:46:04;;;;;;;1.77;0.95;;;;;;;;;;5426754;26;20227;-68
2024/04/17 13:48:29;;;;;;;1.10;1.00;;;;;;;;;;5422859;26;22650;-69
2024/04/17 13:51:02;;;;;;;4.65;1.65;;;;;;;;;;5423555;26;20723;-69
2024/04/17 13:53:27;;;;;;;0.70;0.63;;;;;;;;;;5423173;26;20237;-69
2024/04/17 13:55:52;;;;;;;0.65;0.65;;;;;;;;;;5421704;26;20285;-68
2024/04/17 13:58:17;;;;;;;0.95;0.80;;;;;;;;;;5450559;26;20268;-69
2024/04/17 14:00:43;;;;;;;1.25;0.70;;;;;;;;;;5421915;26;20353;-69
2024/04/17 14:03:08;;;;;;;1.98;0.88;;;;;;;;;;5421501;26;20330;-69
2024/04/17 14:05:34;;;;;;;0.85;0.80;;;;;;;;;;5422288;26;20234;-69
2024/04/17 14:07:59;;;;;;;2.40;0.90;;;;;;;;;;5425179;26;20225;-67
2024/04/17 14:10:26;;;;;;;1.17;0.70;;;;;;;;;;5422772;26;20233;-69
2024/04/17 14:12:51;;;;;;;3.85;0.73;;;;;;;;;;5418803;26;20229;-68
2024/04/17 14:15:16;;;;;;;1.33;0.80;;;;;;;;;;5420658;26;20292;-69
2024/04/17 14:17:41;;;;;;;1.20;0.95;;;;;;;;;;5423504;26;20225;-69
2024/04/17 14:20:07;;;;;;;0.90;0.70;;;;;;;;;;5422018;26;20285;-69
2024/04/17 14:22:32;;;;;;;1.58;0.80;;;;;;;;;;5422625;26;20326;-68
2024/04/17 14:24:57;;;;;;;1.10;0.70;;;;;;;;;;5424285;26;20343;-69
2024/04/17 14:27:22;;;;;;;2.33;0.70;;;;;;;;;;5422772;26;20280;-68
2024/04/17 14:29:47;;;;;;;1.08;0.80;;;;;;;;;;5423896;26;20292;-69
2024/04/17 14:32:13;;;;;;;1.00;0.90;;;;;;;;;;5424039;26;20886;-69
2024/04/17 14:34:38;;;;;;;2.15;0.77;;;;;;;;;;5423879;26;20238;-70
2024/04/17 14:37:03;;;;;;;1.17;0.98;;;;;;;;;;5434558;26;20654;-71